sensor_id;sensor_type;location;lat;lon;timestamp;P1;durP1;ratioP1;P2;durP2;ratioP2
4577;SDS011;2301;47.354;8.528;2023-07-29T00:01:18;2.50;;;2.00;;
4577;SDS011;2301;47.354;8.528;2023-07-29T00:03:46;2.70;;;2.10;;
4577;SDS011;2301;47.354;8.528;2023-07-29T00:06:13;2.20;;;1.60;;
4577;SDS011;2301;47.354;8.528;2023-07-29T00:08:40;2.50;;;2.00;;
4577;SDS011;2301;47.354;8.528;2023-07-29T00:11:07;2.40;;;1.90;;
4577;SDS011;2301;47.354;8.528;2023-07-29T00:13:34;2.40;;;1.80;;
4577;SDS011;2301;47.354;8.528;2023-07-29T00:16:01;3.80;;;2.00;;
4577;SDS011;2301;47.354;8.528;2023-07-29T00:18:27;2.50;;;2.00;;
4577;SDS011;2301;47.354;8.528;2023-07-29T00:20:56;4.23;;;1.70;;
4577;SDS011;2301;47.354;8.528;2023-07-29T00:23:22;3.13;;;2.07;;
4577;SDS011;2301;47.354;8.528;2023-07-29T00:25:49;2.83;;;2.03;;
4577;SDS011;2301;47.354;8.528;2023-07-29T00:28:16;2.90;;;2.10;;
4577;SDS011;2301;47.354;8.528;2023-07-29T00:30:43;3.57;;;2.40;;
4577;SDS011;2301;47.354;8.528;2023-07-29T00:33:10;3.13;;;2.10;;
4577;SDS011;2301;47.354;8.528;2023-07-29T00:35:37;5.73;;;2.23;;
4577;SDS011;2301;47.354;8.528;2023-07-29T00:38:05;2.93;;;2.20;;
4577;SDS011;2301;47.354;8.528;2023-07-29T00:40:33;3.83;;;2.10;;
4577;SDS011;2301;47.354;8.528;2023-07-29T00:43:02;3.43;;;2.27;;
4577;SDS011;2301;47.354;8.528;2023-07-29T00:45:29;3.40;;;2.10;;
4577;SDS011;2301;47.354;8.528;2023-07-29T00:47:56;5.00;;;2.10;;
4577;SDS011;2301;47.354;8.528;2023-07-29T00:50:24;2.70;;;2.03;;
4577;SDS011;2301;47.354;8.528;2023-07-29T00:52:52;4.77;;;2.27;;
4577;SDS011;2301;47.354;8.528;2023-07-29T00:55:21;3.60;;;2.03;;
4577;SDS011;2301;47.354;8.528;2023-07-29T00:57:48;3.33;;;1.80;;
4577;SDS011;2301;47.354;8.528;2023-07-29T01:00:16;3.00;;;1.90;;
4577;SDS011;2301;47.354;8.528;2023-07-29T01:02:43;3.77;;;1.87;;
4577;SDS011;2301;47.354;8.528;2023-07-29T01:05:11;6.97;;;1.93;;
4577;SDS011;2301;47.354;8.528;2023-07-29T01:07:42;4.00;;;2.10;;
4577;SDS011;2301;47.354;8.528;2023-07-29T01:10:17;3.27;;;1.90;;
4577;SDS011;2301;47.354;8.528;2023-07-29T01:12:54;3.13;;;2.03;;
4577;SDS011;2301;47.354;8.528;2023-07-29T01:15:28;3.77;;;1.80;;
4577;SDS011;2301;47.354;8.528;2023-07-29T01:17:59;3.10;;;2.23;;
4577;SDS011;2301;47.354;8.528;2023-07-29T01:20:31;3.73;;;2.20;;
4577;SDS011;2301;47.354;8.528;2023-07-29T01:23:00;6.80;;;2.13;;
4577;SDS011;2301;47.354;8.528;2023-07-29T01:25:28;3.50;;;1.87;;
4577;SDS011;2301;47.354;8.528;2023-07-29T01:27:55;4.10;;;1.83;;
4577;SDS011;2301;47.354;8.528;2023-07-29T01:30:24;3.60;;;2.13;;
4577;SDS011;2301;47.354;8.528;2023-07-29T01:32:56;2.60;;;1.93;;
4577;SDS011;2301;47.354;8.528;2023-07-29T01:35:31;3.40;;;1.70;;
4577;SDS011;2301;47.354;8.528;2023-07-29T01:38:03;2.40;;;2.00;;
4577;SDS011;2301;47.354;8.528;2023-07-29T01:40:33;2.97;;;2.17;;
4577;SDS011;2301;47.354;8.528;2023-07-29T01:43:00;4.70;;;1.93;;
4577;SDS011;2301;47.354;8.528;2023-07-29T01:45:28;4.40;;;2.17;;
4577;SDS011;2301;47.354;8.528;2023-07-29T01:47:56;7.30;;;2.10;;
4577;SDS011;2301;47.354;8.528;2023-07-29T01:50:24;5.63;;;1.93;;
4577;SDS011;2301;47.354;8.528;2023-07-29T01:52:50;5.23;;;2.17;;
4577;SDS011;2301;47.354;8.528;2023-07-29T01:55:17;3.57;;;2.23;;
4577;SDS011;2301;47.354;8.528;2023-07-29T01:57:45;2.40;;;1.83;;
4577;SDS011;2301;47.354;8.528;2023-07-29T02:00:12;4.93;;;1.90;;
4577;SDS011;2301;47.354;8.528;2023-07-29T02:02:39;3.30;;;2.33;;
4577;SDS011;2301;47.354;8.528;2023-07-29T02:05:06;4.13;;;2.20;;
4577;SDS011;2301;47.354;8.528;2023-07-29T02:07:33;3.37;;;2.00;;
4577;SDS011;2301;47.354;8.528;2023-07-29T02:10:00;2.90;;;2.20;;
4577;SDS011;2301;47.354;8.528;2023-07-29T02:12:27;3.33;;;2.03;;
4577;SDS011;2301;47.354;8.528;2023-07-29T02:14:55;2.60;;;2.10;;
4577;SDS011;2301;47.354;8.528;2023-07-29T02:17:22;3.23;;;2.20;;
4577;SDS011;2301;47.354;8.528;2023-07-29T02:19:49;6.00;;;2.20;;
4577;SDS011;2301;47.354;8.528;2023-07-29T02:22:16;2.63;;;1.93;;
4577;SDS011;2301;47.354;8.528;2023-07-29T02:24:43;6.30;;;2.30;;
4577;SDS011;2301;47.354;8.528;2023-07-29T02:27:10;4.63;;;1.90;;
4577;SDS011;2301;47.354;8.528;2023-07-29T02:29:37;2.80;;;2.27;;
4577;SDS011;2301;47.354;8.528;2023-07-29T02:32:06;2.80;;;2.00;;
4577;SDS011;2301;47.354;8.528;2023-07-29T02:34:33;2.73;;;2.00;;
4577;SDS011;2301;47.354;8.528;2023-07-29T02:37:00;2.50;;;2.10;;
4577;SDS011;2301;47.354;8.528;2023-07-29T02:39:27;2.90;;;2.27;;
4577;SDS011;2301;47.354;8.528;2023-07-29T02:41:54;3.20;;;2.30;;
4577;SDS011;2301;47.354;8.528;2023-07-29T02:44:21;2.93;;;2.10;;
4577;SDS011;2301;47.354;8.528;2023-07-29T02:46:48;3.30;;;2.10;;
4577;SDS011;2301;47.354;8.528;2023-07-29T02:49:16;4.00;;;1.97;;
4577;SDS011;2301;47.354;8.528;2023-07-29T02:51:43;3.50;;;2.30;;
4577;SDS011;2301;47.354;8.528;2023-07-29T02:54:10;2.53;;;1.97;;
4577;SDS011;2301;47.354;8.528;2023-07-29T02:56:37;2.90;;;2.20;;
4577;SDS011;2301;47.354;8.528;2023-07-29T02:59:04;2.50;;;2.00;;
4577;SDS011;2301;47.354;8.528;2023-07-29T03:01:31;3.43;;;2.10;;
4577;SDS011;2301;47.354;8.528;2023-07-29T03:03:58;4.27;;;2.40;;
4577;SDS011;2301;47.354;8.528;2023-07-29T03:06:26;4.93;;;2.47;;
4577;SDS011;2301;47.354;8.528;2023-07-29T03:08:53;3.10;;;2.10;;
4577;SDS011;2301;47.354;8.528;2023-07-29T03:11:20;3.30;;;2.47;;
4577;SDS011;2301;47.354;8.528;2023-07-29T03:13:46;4.97;;;2.40;;
4577;SDS011;2301;47.354;8.528;2023-07-29T03:16:14;2.90;;;2.10;;
4577;SDS011;2301;47.354;8.528;2023-07-29T03:18:42;2.80;;;2.00;;
4577;SDS011;2301;47.354;8.528;2023-07-29T03:21:10;2.90;;;2.07;;
4577;SDS011;2301;47.354;8.528;2023-07-29T03:23:38;3.43;;;2.23;;
4577;SDS011;2301;47.354;8.528;2023-07-29T03:26:05;4.10;;;2.50;;
4577;SDS011;2301;47.354;8.528;2023-07-29T03:28:37;4.37;;;2.50;;
4577;SDS011;2301;47.354;8.528;2023-07-29T03:31:06;4.03;;;2.67;;
4577;SDS011;2301;47.354;8.528;2023-07-29T03:33:34;2.70;;;2.10;;
4577;SDS011;2301;47.354;8.528;2023-07-29T03:36:01;5.20;;;2.43;;
4577;SDS011;2301;47.354;8.528;2023-07-29T03:38:27;4.50;;;2.30;;
4577;SDS011;2301;47.354;8.528;2023-07-29T03:40:56;3.60;;;2.60;;
4577;SDS011;2301;47.354;8.528;2023-07-29T03:43:23;8.23;;;2.50;;
4577;SDS011;2301;47.354;8.528;2023-07-29T03:45:50;2.93;;;2.33;;
4577;SDS011;2301;47.354;8.528;2023-07-29T03:48:17;3.23;;;2.40;;
4577;SDS011;2301;47.354;8.528;2023-07-29T03:50:44;3.00;;;2.40;;
4577;SDS011;2301;47.354;8.528;2023-07-29T03:53:11;3.97;;;2.40;;
4577;SDS011;2301;47.354;8.528;2023-07-29T03:55:38;13.07;;;2.77;;
4577;SDS011;2301;47.354;8.528;2023-07-29T03:58:06;4.43;;;2.30;;
4577;SDS011;2301;47.354;8.528;2023-07-29T04:00:33;4.53;;;2.37;;
4577;SDS011;2301;47.354;8.528;2023-07-29T04:03:00;4.10;;;2.73;;
4577;SDS011;2301;47.354;8.528;2023-07-29T04:05:27;3.60;;;2.40;;
4577;SDS011;2301;47.354;8.528;2023-07-29T04:07:54;6.00;;;2.67;;
4577;SDS011;2301;47.354;8.528;2023-07-29T04:10:21;3.50;;;2.33;;
4577;SDS011;2301;47.354;8.528;2023-07-29T04:12:48;4.13;;;2.90;;
4577;SDS011;2301;47.354;8.528;2023-07-29T04:15:16;4.90;;;2.40;;
4577;SDS011;2301;47.354;8.528;2023-07-29T04:17:43;3.10;;;2.43;;
4577;SDS011;2301;47.354;8.528;2023-07-29T04:20:10;3.47;;;2.60;;
4577;SDS011;2301;47.354;8.528;2023-07-29T04:22:37;4.13;;;2.80;;
4577;SDS011;2301;47.354;8.528;2023-07-29T04:25:05;4.13;;;2.60;;
4577;SDS011;2301;47.354;8.528;2023-07-29T04:27:32;4.00;;;2.40;;
4577;SDS011;2301;47.354;8.528;2023-07-29T04:29:59;6.00;;;2.83;;
4577;SDS011;2301;47.354;8.528;2023-07-29T04:32:28;3.23;;;2.10;;
4577;SDS011;2301;47.354;8.528;2023-07-29T04:34:55;3.20;;;2.50;;
4577;SDS011;2301;47.354;8.528;2023-07-29T04:37:22;3.47;;;2.40;;
4577;SDS011;2301;47.354;8.528;2023-07-29T04:39:48;3.73;;;2.73;;
4577;SDS011;2301;47.354;8.528;2023-07-29T04:42:16;5.80;;;2.57;;
4577;SDS011;2301;47.354;8.528;2023-07-29T04:44:43;4.70;;;2.70;;
4577;SDS011;2301;47.354;8.528;2023-07-29T04:47:09;3.80;;;2.63;;
4577;SDS011;2301;47.354;8.528;2023-07-29T04:49:38;4.83;;;2.50;;
4577;SDS011;2301;47.354;8.528;2023-07-29T04:52:05;5.73;;;2.40;;
4577;SDS011;2301;47.354;8.528;2023-07-29T04:54:32;4.17;;;2.83;;
4577;SDS011;2301;47.354;8.528;2023-07-29T04:56:59;6.10;;;2.77;;
4577;SDS011;2301;47.354;8.528;2023-07-29T04:59:26;4.73;;;2.63;;
4577;SDS011;2301;47.354;8.528;2023-07-29T05:01:53;3.23;;;2.53;;
4577;SDS011;2301;47.354;8.528;2023-07-29T05:04:20;2.93;;;2.30;;
4577;SDS011;2301;47.354;8.528;2023-07-29T05:06:49;3.17;;;2.30;;
4577;SDS011;2301;47.354;8.528;2023-07-29T05:09:17;3.40;;;2.53;;
4577;SDS011;2301;47.354;8.528;2023-07-29T05:11:45;3.83;;;2.43;;
4577;SDS011;2301;47.354;8.528;2023-07-29T05:14:12;3.67;;;2.33;;
4577;SDS011;2301;47.354;8.528;2023-07-29T05:16:39;3.07;;;2.20;;
4577;SDS011;2301;47.354;8.528;2023-07-29T05:19:06;3.00;;;2.40;;
4577;SDS011;2301;47.354;8.528;2023-07-29T05:21:33;2.67;;;2.07;;
4577;SDS011;2301;47.354;8.528;2023-07-29T05:24:02;4.73;;;2.60;;
4577;SDS011;2301;47.354;8.528;2023-07-29T05:26:29;3.80;;;2.30;;
4577;SDS011;2301;47.354;8.528;2023-07-29T05:28:56;4.50;;;2.30;;
4577;SDS011;2301;47.354;8.528;2023-07-29T05:31:22;3.33;;;2.60;;
4577;SDS011;2301;47.354;8.528;2023-07-29T05:33:49;3.57;;;2.70;;
4577;SDS011;2301;47.354;8.528;2023-07-29T05:36:16;3.20;;;2.60;;
4577;SDS011;2301;47.354;8.528;2023-07-29T05:38:43;2.97;;;2.30;;
4577;SDS011;2301;47.354;8.528;2023-07-29T05:41:11;8.20;;;2.40;;
4577;SDS011;2301;47.354;8.528;2023-07-29T05:43:38;5.50;;;2.80;;
4577;SDS011;2301;47.354;8.528;2023-07-29T05:46:07;3.30;;;2.70;;
4577;SDS011;2301;47.354;8.528;2023-07-29T05:48:34;3.70;;;2.37;;
4577;SDS011;2301;47.354;8.528;2023-07-29T05:51:01;4.37;;;2.53;;
4577;SDS011;2301;47.354;8.528;2023-07-29T05:53:30;4.10;;;2.70;;
4577;SDS011;2301;47.354;8.528;2023-07-29T05:55:57;3.70;;;2.83;;
4577;SDS011;2301;47.354;8.528;2023-07-29T05:58:25;2.97;;;2.37;;
4577;SDS011;2301;47.354;8.528;2023-07-29T06:00:52;3.30;;;2.53;;
4577;SDS011;2301;47.354;8.528;2023-07-29T06:03:19;5.13;;;2.60;;
4577;SDS011;2301;47.354;8.528;2023-07-29T06:05:46;3.23;;;2.57;;
4577;SDS011;2301;47.354;8.528;2023-07-29T06:08:14;3.40;;;2.67;;
4577;SDS011;2301;47.354;8.528;2023-07-29T06:10:41;3.27;;;2.60;;
4577;SDS011;2301;47.354;8.528;2023-07-29T06:13:08;3.40;;;2.50;;
4577;SDS011;2301;47.354;8.528;2023-07-29T06:15:36;3.40;;;2.50;;
4577;SDS011;2301;47.354;8.528;2023-07-29T06:18:03;4.10;;;2.53;;
4577;SDS011;2301;47.354;8.528;2023-07-29T06:20:30;3.90;;;2.53;;
4577;SDS011;2301;47.354;8.528;2023-07-29T06:22:57;3.90;;;2.30;;
4577;SDS011;2301;47.354;8.528;2023-07-29T06:25:24;3.60;;;2.87;;
4577;SDS011;2301;47.354;8.528;2023-07-29T06:27:51;4.60;;;2.50;;
4577;SDS011;2301;47.354;8.528;2023-07-29T06:30:17;6.10;;;2.50;;
4577;SDS011;2301;47.354;8.528;2023-07-29T06:32:46;2.50;;;2.10;;
4577;SDS011;2301;47.354;8.528;2023-07-29T06:35:13;5.57;;;2.60;;
4577;SDS011;2301;47.354;8.528;2023-07-29T06:37:39;6.30;;;2.80;;
4577;SDS011;2301;47.354;8.528;2023-07-29T06:40:07;9.13;;;2.80;;
4577;SDS011;2301;47.354;8.528;2023-07-29T06:42:34;8.50;;;2.60;;
4577;SDS011;2301;47.354;8.528;2023-07-29T06:45:02;12.53;;;2.70;;
4577;SDS011;2301;47.354;8.528;2023-07-29T06:47:30;3.63;;;2.57;;
4577;SDS011;2301;47.354;8.528;2023-07-29T06:49:58;4.30;;;2.60;;
4577;SDS011;2301;47.354;8.528;2023-07-29T06:52:25;3.20;;;2.40;;
4577;SDS011;2301;47.354;8.528;2023-07-29T06:54:52;5.70;;;2.70;;
4577;SDS011;2301;47.354;8.528;2023-07-29T06:57:19;2.80;;;2.43;;
4577;SDS011;2301;47.354;8.528;2023-07-29T06:59:46;3.43;;;2.40;;
4577;SDS011;2301;47.354;8.528;2023-07-29T07:02:13;3.67;;;2.67;;
4577;SDS011;2301;47.354;8.528;2023-07-29T07:04:40;4.27;;;2.40;;
4577;SDS011;2301;47.354;8.528;2023-07-29T07:07:09;4.10;;;2.87;;
4577;SDS011;2301;47.354;8.528;2023-07-29T07:09:35;3.73;;;2.40;;
4577;SDS011;2301;47.354;8.528;2023-07-29T07:12:02;2.87;;;2.30;;
4577;SDS011;2301;47.354;8.528;2023-07-29T07:14:30;3.20;;;2.70;;
4577;SDS011;2301;47.354;8.528;2023-07-29T07:16:57;3.00;;;2.27;;
4577;SDS011;2301;47.354;8.528;2023-07-29T07:19:24;2.80;;;2.20;;
4577;SDS011;2301;47.354;8.528;2023-07-29T07:21:51;3.40;;;2.67;;
4577;SDS011;2301;47.354;8.528;2023-07-29T07:24:19;5.07;;;2.97;;
4577;SDS011;2301;47.354;8.528;2023-07-29T07:26:46;3.20;;;2.90;;
4577;SDS011;2301;47.354;8.528;2023-07-29T07:29:14;4.57;;;2.70;;
4577;SDS011;2301;47.354;8.528;2023-07-29T07:31:41;3.80;;;2.60;;
4577;SDS011;2301;47.354;8.528;2023-07-29T07:34:16;4.57;;;2.80;;
4577;SDS011;2301;47.354;8.528;2023-07-29T07:36:43;3.13;;;2.53;;
4577;SDS011;2301;47.354;8.528;2023-07-29T07:39:10;3.70;;;2.43;;
4577;SDS011;2301;47.354;8.528;2023-07-29T07:41:39;3.97;;;3.17;;
4577;SDS011;2301;47.354;8.528;2023-07-29T07:44:06;3.13;;;2.30;;
4577;SDS011;2301;47.354;8.528;2023-07-29T07:46:33;5.17;;;2.53;;
4577;SDS011;2301;47.354;8.528;2023-07-29T07:49:00;3.37;;;2.87;;
4577;SDS011;2301;47.354;8.528;2023-07-29T07:51:26;3.27;;;2.60;;
4577;SDS011;2301;47.354;8.528;2023-07-29T07:53:54;3.97;;;2.93;;
4577;SDS011;2301;47.354;8.528;2023-07-29T07:56:20;2.80;;;2.40;;
4577;SDS011;2301;47.354;8.528;2023-07-29T07:58:49;4.40;;;2.87;;
4577;SDS011;2301;47.354;8.528;2023-07-29T08:01:16;3.40;;;2.70;;
4577;SDS011;2301;47.354;8.528;2023-07-29T08:03:43;4.07;;;2.80;;
4577;SDS011;2301;47.354;8.528;2023-07-29T08:06:09;3.57;;;2.57;;
4577;SDS011;2301;47.354;8.528;2023-07-29T08:08:36;3.43;;;2.87;;
4577;SDS011;2301;47.354;8.528;2023-07-29T08:11:05;3.30;;;2.60;;
4577;SDS011;2301;47.354;8.528;2023-07-29T08:13:33;3.60;;;2.83;;
4577;SDS011;2301;47.354;8.528;2023-07-29T08:16:02;3.10;;;2.70;;
4577;SDS011;2301;47.354;8.528;2023-07-29T08:18:29;3.53;;;2.60;;
4577;SDS011;2301;47.354;8.528;2023-07-29T08:20:57;4.17;;;2.73;;
4577;SDS011;2301;47.354;8.528;2023-07-29T08:23:28;3.47;;;2.83;;
4577;SDS011;2301;47.354;8.528;2023-07-29T08:25:56;3.83;;;2.90;;
4577;SDS011;2301;47.354;8.528;2023-07-29T08:28:27;3.70;;;2.67;;
4577;SDS011;2301;47.354;8.528;2023-07-29T08:30:55;5.43;;;2.63;;
4577;SDS011;2301;47.354;8.528;2023-07-29T08:33:23;2.60;;;2.37;;
4577;SDS011;2301;47.354;8.528;2023-07-29T08:35:50;3.43;;;2.50;;
4577;SDS011;2301;47.354;8.528;2023-07-29T08:38:17;3.50;;;2.27;;
4577;SDS011;2301;47.354;8.528;2023-07-29T08:40:45;2.90;;;2.40;;
4577;SDS011;2301;47.354;8.528;2023-07-29T08:43:18;2.50;;;2.30;;
4577;SDS011;2301;47.354;8.528;2023-07-29T08:45:46;4.20;;;2.20;;
4577;SDS011;2301;47.354;8.528;2023-07-29T08:48:13;3.77;;;2.70;;
4577;SDS011;2301;47.354;8.528;2023-07-29T08:50:46;3.97;;;3.20;;
4577;SDS011;2301;47.354;8.528;2023-07-29T08:53:15;4.53;;;2.93;;
4577;SDS011;2301;47.354;8.528;2023-07-29T08:55:43;2.70;;;2.37;;
4577;SDS011;2301;47.354;8.528;2023-07-29T08:58:10;3.27;;;2.57;;
4577;SDS011;2301;47.354;8.528;2023-07-29T09:00:37;2.93;;;2.63;;
4577;SDS011;2301;47.354;8.528;2023-07-29T09:03:05;2.80;;;2.37;;
4577;SDS011;2301;47.354;8.528;2023-07-29T09:05:32;3.23;;;2.73;;
4577;SDS011;2301;47.354;8.528;2023-07-29T09:08:01;3.50;;;2.90;;
4577;SDS011;2301;47.354;8.528;2023-07-29T09:10:29;5.93;;;5.40;;
4577;SDS011;2301;47.354;8.528;2023-07-29T09:12:56;3.33;;;2.20;;
4577;SDS011;2301;47.354;8.528;2023-07-29T09:15:27;2.93;;;2.63;;
4577;SDS011;2301;47.354;8.528;2023-07-29T09:17:55;2.77;;;2.43;;
4577;SDS011;2301;47.354;8.528;2023-07-29T09:20:24;3.40;;;2.30;;
4577;SDS011;2301;47.354;8.528;2023-07-29T09:22:51;3.00;;;2.37;;
4577;SDS011;2301;47.354;8.528;2023-07-29T09:25:23;3.33;;;2.40;;
4577;SDS011;2301;47.354;8.528;2023-07-29T09:27:51;2.93;;;2.37;;
4577;SDS011;2301;47.354;8.528;2023-07-29T09:30:18;3.30;;;2.50;;
4577;SDS011;2301;47.354;8.528;2023-07-29T09:32:45;2.87;;;2.50;;
4577;SDS011;2301;47.354;8.528;2023-07-29T09:35:12;2.10;;;1.90;;
4577;SDS011;2301;47.354;8.528;2023-07-29T09:37:39;2.70;;;2.20;;
4577;SDS011;2301;47.354;8.528;2023-07-29T09:40:06;3.90;;;2.50;;
4577;SDS011;2301;47.354;8.528;2023-07-29T09:42:48;3.13;;;2.40;;
4577;SDS011;2301;47.354;8.528;2023-07-29T09:45:20;2.40;;;2.07;;
4577;SDS011;2301;47.354;8.528;2023-07-29T09:47:48;2.97;;;2.30;;
4577;SDS011;2301;47.354;8.528;2023-07-29T09:50:15;2.53;;;2.33;;
4577;SDS011;2301;47.354;8.528;2023-07-29T09:52:43;2.47;;;2.10;;
4577;SDS011;2301;47.354;8.528;2023-07-29T09:55:11;3.60;;;1.90;;
4577;SDS011;2301;47.354;8.528;2023-07-29T09:57:39;3.57;;;2.70;;
4577;SDS011;2301;47.354;8.528;2023-07-29T10:00:10;2.63;;;2.30;;
4577;SDS011;2301;47.354;8.528;2023-07-29T10:02:38;2.13;;;1.90;;
4577;SDS011;2301;47.354;8.528;2023-07-29T10:05:06;2.50;;;2.13;;
4577;SDS011;2301;47.354;8.528;2023-07-29T10:07:34;3.20;;;2.20;;
4577;SDS011;2301;47.354;8.528;2023-07-29T10:10:04;2.57;;;2.37;;
4577;SDS011;2301;47.354;8.528;2023-07-29T10:12:32;2.67;;;2.23;;
4577;SDS011;2301;47.354;8.528;2023-07-29T10:15:01;2.23;;;2.03;;
4577;SDS011;2301;47.354;8.528;2023-07-29T10:17:31;3.67;;;2.10;;
4577;SDS011;2301;47.354;8.528;2023-07-29T10:20:01;2.47;;;2.27;;
4577;SDS011;2301;47.354;8.528;2023-07-29T10:22:37;2.67;;;2.27;;
4577;SDS011;2301;47.354;8.528;2023-07-29T10:25:07;3.37;;;1.63;;
4577;SDS011;2301;47.354;8.528;2023-07-29T10:27:39;2.30;;;2.10;;
4577;SDS011;2301;47.354;8.528;2023-07-29T10:30:10;2.63;;;2.07;;
4577;SDS011;2301;47.354;8.528;2023-07-29T10:32:39;2.73;;;2.00;;
4577;SDS011;2301;47.354;8.528;2023-07-29T10:35:09;4.30;;;2.10;;
4577;SDS011;2301;47.354;8.528;2023-07-29T10:37:36;2.20;;;1.80;;
4577;SDS011;2301;47.354;8.528;2023-07-29T10:40:05;2.30;;;2.10;;
4577;SDS011;2301;47.354;8.528;2023-07-29T10:42:33;2.20;;;1.93;;
4577;SDS011;2301;47.354;8.528;2023-07-29T10:45:00;2.43;;;1.97;;
4577;SDS011;2301;47.354;8.528;2023-07-29T10:47:45;4.20;;;2.10;;
4577;SDS011;2301;47.354;8.528;2023-07-29T10:50:16;2.40;;;2.20;;
4577;SDS011;2301;47.354;8.528;2023-07-29T10:52:46;1.73;;;1.63;;
4577;SDS011;2301;47.354;8.528;2023-07-29T10:58:08;2.30;;;1.77;;
4577;SDS011;2301;47.354;8.528;2023-07-29T11:00:41;1.90;;;1.70;;
4577;SDS011;2301;47.354;8.528;2023-07-29T11:03:09;2.00;;;1.80;;
4577;SDS011;2301;47.354;8.528;2023-07-29T11:05:43;3.10;;;1.93;;
4577;SDS011;2301;47.354;8.528;2023-07-29T11:08:22;2.07;;;1.87;;
4577;SDS011;2301;47.354;8.528;2023-07-29T11:13:33;2.90;;;2.27;;
4577;SDS011;2301;47.354;8.528;2023-07-29T11:16:02;2.53;;;2.20;;
4577;SDS011;2301;47.354;8.528;2023-07-29T11:18:35;2.27;;;1.97;;
4577;SDS011;2301;47.354;8.528;2023-07-29T11:21:03;2.73;;;2.20;;
4577;SDS011;2301;47.354;8.528;2023-07-29T11:23:32;2.60;;;1.90;;
4577;SDS011;2301;47.354;8.528;2023-07-29T11:26:03;3.33;;;2.37;;
4577;SDS011;2301;47.354;8.528;2023-07-29T11:28:37;3.77;;;2.17;;
4577;SDS011;2301;47.354;8.528;2023-07-29T11:31:05;2.83;;;2.03;;
4577;SDS011;2301;47.354;8.528;2023-07-29T11:33:32;3.47;;;2.30;;
4577;SDS011;2301;47.354;8.528;2023-07-29T11:36:01;3.53;;;2.30;;
4577;SDS011;2301;47.354;8.528;2023-07-29T11:38:28;3.27;;;2.17;;
4577;SDS011;2301;47.354;8.528;2023-07-29T11:40:58;5.70;;;2.60;;
4577;SDS011;2301;47.354;8.528;2023-07-29T11:43:28;2.33;;;2.03;;
4577;SDS011;2301;47.354;8.528;2023-07-29T11:45:55;3.20;;;2.20;;
4577;SDS011;2301;47.354;8.528;2023-07-29T11:48:28;3.73;;;2.60;;
4577;SDS011;2301;47.354;8.528;2023-07-29T11:50:59;2.90;;;2.37;;
4577;SDS011;2301;47.354;8.528;2023-07-29T11:53:27;2.93;;;2.33;;
4577;SDS011;2301;47.354;8.528;2023-07-29T11:55:55;3.00;;;2.40;;
4577;SDS011;2301;47.354;8.528;2023-07-29T11:58:23;3.53;;;2.60;;
4577;SDS011;2301;47.354;8.528;2023-07-29T12:00:50;2.63;;;2.10;;
4577;SDS011;2301;47.354;8.528;2023-07-29T12:03:18;2.20;;;1.80;;
4577;SDS011;2301;47.354;8.528;2023-07-29T12:05:45;4.10;;;1.97;;
4577;SDS011;2301;47.354;8.528;2023-07-29T12:08:14;4.50;;;2.10;;
4577;SDS011;2301;47.354;8.528;2023-07-29T12:10:41;2.50;;;1.80;;
4577;SDS011;2301;47.354;8.528;2023-07-29T12:13:09;2.20;;;1.90;;
4577;SDS011;2301;47.354;8.528;2023-07-29T12:15:37;2.70;;;1.90;;
4577;SDS011;2301;47.354;8.528;2023-07-29T12:18:05;3.53;;;2.40;;
4577;SDS011;2301;47.354;8.528;2023-07-29T12:20:32;3.17;;;2.13;;
4577;SDS011;2301;47.354;8.528;2023-07-29T12:22:59;3.00;;;1.83;;
4577;SDS011;2301;47.354;8.528;2023-07-29T12:25:29;2.83;;;2.13;;
4577;SDS011;2301;47.354;8.528;2023-07-29T12:27:56;2.33;;;1.90;;
4577;SDS011;2301;47.354;8.528;2023-07-29T12:30:27;3.10;;;1.97;;
4577;SDS011;2301;47.354;8.528;2023-07-29T12:32:54;3.37;;;2.20;;
4577;SDS011;2301;47.354;8.528;2023-07-29T12:35:21;2.80;;;2.23;;
4577;SDS011;2301;47.354;8.528;2023-07-29T12:37:57;4.33;;;2.70;;
4577;SDS011;2301;47.354;8.528;2023-07-29T12:40:25;3.10;;;2.07;;
4577;SDS011;2301;47.354;8.528;2023-07-29T12:42:57;3.17;;;2.20;;
4577;SDS011;2301;47.354;8.528;2023-07-29T12:45:24;3.33;;;2.30;;
4577;SDS011;2301;47.354;8.528;2023-07-29T12:47:53;3.47;;;2.37;;
4577;SDS011;2301;47.354;8.528;2023-07-29T12:50:20;4.27;;;2.40;;
4577;SDS011;2301;47.354;8.528;2023-07-29T12:52:47;3.23;;;2.10;;
4577;SDS011;2301;47.354;8.528;2023-07-29T12:55:14;2.20;;;1.70;;
4577;SDS011;2301;47.354;8.528;2023-07-29T12:57:41;2.47;;;1.47;;
4577;SDS011;2301;47.354;8.528;2023-07-29T13:00:11;2.77;;;1.70;;
4577;SDS011;2301;47.354;8.528;2023-07-29T13:02:38;4.30;;;2.07;;
4577;SDS011;2301;47.354;8.528;2023-07-29T13:05:08;2.30;;;1.73;;
4577;SDS011;2301;47.354;8.528;2023-07-29T13:07:36;2.90;;;2.00;;
4577;SDS011;2301;47.354;8.528;2023-07-29T13:10:04;2.17;;;1.40;;
4577;SDS011;2301;47.354;8.528;2023-07-29T13:12:31;7.10;;;1.93;;
4577;SDS011;2301;47.354;8.528;2023-07-29T13:14:58;2.37;;;1.47;;
4577;SDS011;2301;47.354;8.528;2023-07-29T13:17:27;2.93;;;1.60;;
4577;SDS011;2301;47.354;8.528;2023-07-29T13:19:53;2.43;;;1.60;;
4577;SDS011;2301;47.354;8.528;2023-07-29T13:22:20;2.40;;;1.70;;
4577;SDS011;2301;47.354;8.528;2023-07-29T13:24:47;2.93;;;1.47;;
4577;SDS011;2301;47.354;8.528;2023-07-29T13:27:14;3.50;;;1.73;;
4577;SDS011;2301;47.354;8.528;2023-07-29T13:29:41;2.80;;;1.73;;
4577;SDS011;2301;47.354;8.528;2023-07-29T13:32:08;2.27;;;1.73;;
4577;SDS011;2301;47.354;8.528;2023-07-29T13:34:37;3.20;;;1.60;;
4577;SDS011;2301;47.354;8.528;2023-07-29T13:37:05;2.60;;;1.63;;
4577;SDS011;2301;47.354;8.528;2023-07-29T13:39:32;2.07;;;1.60;;
4577;SDS011;2301;47.354;8.528;2023-07-29T13:41:59;3.70;;;1.80;;
4577;SDS011;2301;47.354;8.528;2023-07-29T13:44:25;3.40;;;1.80;;
4577;SDS011;2301;47.354;8.528;2023-07-29T13:46:52;3.17;;;2.00;;
4577;SDS011;2301;47.354;8.528;2023-07-29T13:49:19;2.57;;;1.60;;
4577;SDS011;2301;47.354;8.528;2023-07-29T13:51:48;4.10;;;1.80;;
4577;SDS011;2301;47.354;8.528;2023-07-29T13:54:14;2.80;;;2.00;;
4577;SDS011;2301;47.354;8.528;2023-07-29T13:56:41;2.90;;;1.70;;
4577;SDS011;2301;47.354;8.528;2023-07-29T13:59:08;4.17;;;2.07;;
4577;SDS011;2301;47.354;8.528;2023-07-29T14:01:35;2.77;;;1.80;;
4577;SDS011;2301;47.354;8.528;2023-07-29T14:04:02;2.50;;;1.70;;
4577;SDS011;2301;47.354;8.528;2023-07-29T14:06:29;3.03;;;1.77;;
4577;SDS011;2301;47.354;8.528;2023-07-29T14:08:57;3.77;;;2.10;;
4577;SDS011;2301;47.354;8.528;2023-07-29T14:11:24;3.57;;;1.97;;
4577;SDS011;2301;47.354;8.528;2023-07-29T14:13:51;2.60;;;1.90;;
4577;SDS011;2301;47.354;8.528;2023-07-29T14:16:18;3.00;;;2.10;;
4577;SDS011;2301;47.354;8.528;2023-07-29T14:18:45;2.53;;;2.00;;
4577;SDS011;2301;47.354;8.528;2023-07-29T14:21:13;2.73;;;1.80;;
4577;SDS011;2301;47.354;8.528;2023-07-29T14:23:40;2.87;;;1.80;;
4577;SDS011;2301;47.354;8.528;2023-07-29T14:26:08;2.73;;;1.90;;
4577;SDS011;2301;47.354;8.528;2023-07-29T14:28:35;2.30;;;1.50;;
4577;SDS011;2301;47.354;8.528;2023-07-29T14:31:02;2.90;;;1.70;;
4577;SDS011;2301;47.354;8.528;2023-07-29T14:33:29;2.77;;;2.10;;
4577;SDS011;2301;47.354;8.528;2023-07-29T14:35:56;3.53;;;2.00;;
4577;SDS011;2301;47.354;8.528;2023-07-29T14:38:23;2.27;;;1.60;;
4577;SDS011;2301;47.354;8.528;2023-07-29T14:40:51;2.40;;;1.80;;
4577;SDS011;2301;47.354;8.528;2023-07-29T14:43:21;2.50;;;1.80;;
4577;SDS011;2301;47.354;8.528;2023-07-29T14:45:47;3.13;;;1.80;;
4577;SDS011;2301;47.354;8.528;2023-07-29T14:48:14;2.70;;;2.13;;
4577;SDS011;2301;47.354;8.528;2023-07-29T14:50:42;2.40;;;1.53;;
4577;SDS011;2301;47.354;8.528;2023-07-29T14:53:09;2.30;;;1.63;;
4577;SDS011;2301;47.354;8.528;2023-07-29T14:55:36;3.10;;;1.70;;
4577;SDS011;2301;47.354;8.528;2023-07-29T14:58:04;2.07;;;1.60;;
4577;SDS011;2301;47.354;8.528;2023-07-29T15:00:32;3.03;;;1.80;;
4577;SDS011;2301;47.354;8.528;2023-07-29T15:02:59;2.20;;;1.67;;
4577;SDS011;2301;47.354;8.528;2023-07-29T15:05:27;2.90;;;1.80;;
4577;SDS011;2301;47.354;8.528;2023-07-29T15:07:54;3.70;;;1.80;;
4577;SDS011;2301;47.354;8.528;2023-07-29T15:10:21;8.03;;;2.17;;
4577;SDS011;2301;47.354;8.528;2023-07-29T15:12:48;2.40;;;1.73;;
4577;SDS011;2301;47.354;8.528;2023-07-29T15:15:16;2.70;;;2.00;;
4577;SDS011;2301;47.354;8.528;2023-07-29T15:17:45;3.77;;;2.30;;
4577;SDS011;2301;47.354;8.528;2023-07-29T15:20:12;2.70;;;2.10;;
4577;SDS011;2301;47.354;8.528;2023-07-29T15:22:39;3.23;;;1.83;;
4577;SDS011;2301;47.354;8.528;2023-07-29T15:25:07;2.80;;;1.97;;